TimePST,TemperatureF,Dew PointF,Humidity,Sea Level PressureIn,VisibilityMPH,Wind Direction,Wind SpeedMPH,Gust SpeedMPH,PrecipitationIn,Events,Conditions,WindDirDegrees,DateUTC
12:00 AM,37.4,32.0,81,30.15,40.0,ESE,18.4,-,N/A,,Overcast,110,2013-02-27 08:00:00
1:00 AM,37.4,32.0,81,30.14,40.0,East,13.8,-,N/A,,Mostly Cloudy,90,2013-02-27 09:00:00
2:00 AM,35.6,32.0,87,30.16,40.0,East,11.5,-,N/A,,Mostly Cloudy,90,2013-02-27 10:00:00
3:00 AM,35.6,32.0,87,30.16,40.0,East,12.7,-,N/A,,Mostly Cloudy,90,2013-02-27 11:00:00
4:00 AM,35,31,80,30.16,37,East,11.5,,,,Scattered Clouds,90,2013-02-27 12:00:00
4:00 AM,35.6,32.0,87,30.16,40.0,East,11.5,-,N/A,,Mostly Cloudy,90,2013-02-27 12:00:00
5:00 AM,35.6,32.0,87,30.17,40.0,East,13.8,-,N/A,,Mostly Cloudy,100,2013-02-27 13:00:00
6:00 AM,33.8,30.2,87,30.19,40.0,Calm,Calm,-,N/A,,Mostly Cloudy,0,2013-02-27 14:00:00
7:00 AM,32.0,26.6,80,30.22,40.0,WSW,5.8,-,N/A,,Partly Cloudy,240,2013-02-27 15:00:00
8:00 AM,32.0,26.6,80,30.24,40.0,SW,2.3,-,N/A,,Partly Cloudy,230,2013-02-27 16:00:00
9:00 AM,35.6,28.4,75,30.25,40.0,West,4.6,-,N/A,,Partly Cloudy,280,2013-02-27 17:00:00
10:00 AM,37,29,65,30.25,31,WSW,3.5,,,,Scattered Clouds,240,2013-02-27 18:00:00
11:00 AM,41.0,30.2,65,30.24,40.0,SW,2.3,-,N/A,,Partly Cloudy,230,2013-02-27 19:00:00
12:00 PM,44.6,28.4,53,30.22,40.0,SE,3.5,-,N/A,,Partly Cloudy,140,2013-02-27 20:00:00
1:00 PM,46.4,26.6,46,30.20,40.0,East,3.5,-,N/A,,Scattered Clouds,100,2013-02-27 21:00:00
2:00 PM,46.4,24.8,43,30.18,40.0,SW,2.3,-,N/A,,Mostly Cloudy,230,2013-02-27 22:00:00
3:00 PM,48.2,23.0,37,30.17,40.0,SE,9.2,-,N/A,,Overcast,140,2013-02-27 23:00:00
4:00 PM,47,21,23,30.17,37,SSE,16.1,,,,Overcast,150,2013-02-28 00:00:00
4:00 PM,48.2,21.2,34,30.17,40.0,SSE,16.1,-,N/A,,Overcast,150,2013-02-28 00:00:00
5:00 PM,46.4,19.4,34,30.18,40.0,South,15.0,-,N/A,,Overcast,170,2013-02-28 01:00:00
6:00 PM,44.6,21.2,39,30.21,40.0,SW,11.5,18.4,N/A,,Overcast,220,2013-02-28 02:00:00
7:00 PM,42.8,24.8,49,30.24,40.0,South,8.1,-,N/A,,Overcast,180,2013-02-28 03:00:00
8:00 PM,42.8,26.6,53,30.23,40.0,East,9.2,-,N/A,,Overcast,90,2013-02-28 04:00:00
9:00 PM,41.0,28.4,61,30.24,40.0,East,15.0,20.7,N/A,,Overcast,100,2013-02-28 05:00:00
10:00 PM,39,29,56,30.25,37,East,11.5,,,,Partly Cloudy,100,2013-02-28 06:00:00
10:00 PM,39.2,28.4,65,30.25,40.0,East,11.5,-,N/A,,Mostly Cloudy,100,2013-02-28 06:00:00
11:00 PM,37.4,28.4,70,30.25,40.0,East,11.5,-,N/A,,Partly Cloudy,80,2013-02-28 07:00:00